createdAt,value
2023-02-21T00:01:48.154Z,3.87
2023-02-21T00:04:33.540Z,3.40
2023-02-21T00:07:19.053Z,3.43
2023-02-21T00:10:05.734Z,3.00
2023-02-21T00:12:51.375Z,3.50
2023-02-21T00:15:36.552Z,3.53
2023-02-21T00:18:21.937Z,3.47
2023-02-21T00:21:07.457Z,3.10
2023-02-21T00:23:53.317Z,3.37
2023-02-21T00:26:41.108Z,3.30
2023-02-21T00:29:26.544Z,3.60
2023-02-21T00:32:11.988Z,3.60
2023-02-21T00:34:57.266Z,3.80
2023-02-21T00:37:42.559Z,3.37
2023-02-21T00:40:30.414Z,3.57
2023-02-21T00:43:16.882Z,3.90
2023-02-21T00:46:02.492Z,3.90
2023-02-21T00:48:48.182Z,3.47
2023-02-21T00:51:33.252Z,3.80
2023-02-21T00:54:18.726Z,3.07
2023-02-21T00:57:04.199Z,3.40
2023-02-21T00:59:50.746Z,3.50
2023-02-21T01:02:35.918Z,3.87
2023-02-21T01:05:21.176Z,4.30
2023-02-21T01:08:06.550Z,4.47
2023-02-21T01:10:52.050Z,3.60
2023-02-21T01:13:37.348Z,3.53
2023-02-21T01:16:25.400Z,3.40
2023-02-21T01:19:10.894Z,3.60
2023-02-21T01:21:56.240Z,3.93
2023-02-21T01:24:41.722Z,4.90
2023-02-21T01:27:26.965Z,3.87
2023-02-21T01:30:12.486Z,3.83
2023-02-21T01:32:59.118Z,3.90
2023-02-21T01:35:44.455Z,3.67
2023-02-21T01:38:29.990Z,3.90
2023-02-21T01:41:15.818Z,4.10
2023-02-21T01:44:16.167Z,4.03
2023-02-21T01:47:01.619Z,4.47
2023-02-21T01:49:48.615Z,3.70
2023-02-21T01:52:34.260Z,4.10
2023-02-21T01:55:19.315Z,4.20
2023-02-21T01:58:05.691Z,3.70
2023-02-21T02:00:51.203Z,4.43
2023-02-21T02:03:38.485Z,4.27
2023-02-21T02:06:28.517Z,3.97
2023-02-21T02:09:13.880Z,4.10
2023-02-21T02:12:14.350Z,4.00
2023-02-21T02:14:52.847Z,3.77
2023-02-21T02:17:27.338Z,4.57
2023-02-21T02:20:46.078Z,4.87
2023-02-21T02:23:40.583Z,6.07
2023-02-21T02:26:43.979Z,5.80
2023-02-21T02:29:26.296Z,4.77
2023-02-21T02:32:26.973Z,4.87
2023-02-21T02:34:57.805Z,5.47
2023-02-21T02:37:31.318Z,4.43
2023-02-21T02:40:05.024Z,4.30
2023-02-21T02:42:41.233Z,4.73
2023-02-21T02:45:13.948Z,4.90
2023-02-21T02:47:44.738Z,4.43
2023-02-21T02:50:14.663Z,3.80
2023-02-21T02:52:51.721Z,4.67
2023-02-21T02:55:27.796Z,4.80
2023-02-21T02:57:55.576Z,4.57
2023-02-21T03:00:23.676Z,4.40
2023-02-21T03:03:02.288Z,4.40
2023-02-21T03:05:44.018Z,4.50
2023-02-21T03:08:17.430Z,4.37
2023-02-21T03:10:49.598Z,4.20
2023-02-21T03:13:20.043Z,4.33
2023-02-21T03:15:50.838Z,4.20
2023-02-21T03:18:22.400Z,4.20
2023-02-21T03:20:55.647Z,4.00
2023-02-21T03:23:23.829Z,4.63
2023-02-21T03:25:52.584Z,4.20
2023-02-21T03:28:21.624Z,3.73
2023-02-21T03:30:50.618Z,4.30
2023-02-21T03:33:18.354Z,4.00
2023-02-21T03:35:46.214Z,3.80
2023-02-21T03:38:16.336Z,4.00
2023-02-21T03:40:44.051Z,4.07
2023-02-21T03:43:11.889Z,3.90
2023-02-21T03:45:39.579Z,4.00
2023-02-21T03:48:07.335Z,4.23
2023-02-21T03:50:35.038Z,3.53
2023-02-21T03:53:02.585Z,4.27
2023-02-21T03:55:31.634Z,3.90
2023-02-21T03:57:59.296Z,3.73
2023-02-21T04:00:27.069Z,3.80
2023-02-21T04:02:55.139Z,4.63
2023-02-21T04:05:23.240Z,3.53
2023-02-21T04:07:50.972Z,3.90
2023-02-21T04:10:18.728Z,3.97
2023-02-21T04:12:47.724Z,3.70
2023-02-21T04:15:15.480Z,3.70
2023-02-21T04:17:43.192Z,3.73
2023-02-21T04:20:11.743Z,3.90
2023-02-21T04:22:40.573Z,4.20
2023-02-21T04:25:08.718Z,4.03
2023-02-21T04:27:36.411Z,4.20
2023-02-21T04:30:05.673Z,4.30
2023-02-21T04:32:33.373Z,3.87
2023-02-21T04:35:01.135Z,4.47
2023-02-21T04:37:28.782Z,4.47
2023-02-21T04:39:56.564Z,4.90
2023-02-21T04:42:24.428Z,4.50
2023-02-21T04:45:00.042Z,4.83
2023-02-21T04:47:29.780Z,4.20
2023-02-21T04:49:57.621Z,4.83
2023-02-21T04:52:25.835Z,4.47
2023-02-21T04:54:53.597Z,4.10
2023-02-21T04:57:21.462Z,4.13
2023-02-21T04:59:49.208Z,4.27
2023-02-21T05:02:16.892Z,4.23
2023-02-21T05:04:45.958Z,3.90
2023-02-21T05:07:14.234Z,4.20
2023-02-21T05:09:41.963Z,4.70
2023-02-21T05:12:12.066Z,5.53
2023-02-21T05:14:40.038Z,4.83
2023-02-21T05:17:08.491Z,3.73
2023-02-21T05:19:36.175Z,3.90
2023-02-21T05:22:07.296Z,3.80
2023-02-21T05:24:35.054Z,4.37
2023-02-21T05:27:02.787Z,4.27
2023-02-21T05:29:30.560Z,3.90
2023-02-21T05:31:58.342Z,4.13
2023-02-21T05:34:26.037Z,3.90
2023-02-21T05:36:53.739Z,3.87
2023-02-21T05:39:22.760Z,4.80
2023-02-21T05:41:51.779Z,5.80
2023-02-21T05:44:19.817Z,5.10
2023-02-21T05:46:48.661Z,5.23
2023-02-21T05:49:16.417Z,4.70
2023-02-21T05:51:44.860Z,4.87
2023-02-21T05:54:16.278Z,4.47
2023-02-21T05:56:46.793Z,4.87
2023-02-21T05:59:14.958Z,4.33
2023-02-21T06:01:43.172Z,4.70
2023-02-21T06:04:10.861Z,5.37
2023-02-21T06:06:38.805Z,4.53
2023-02-21T06:09:07.203Z,5.03
2023-02-21T06:11:37.584Z,4.20
2023-02-21T06:14:08.966Z,4.57
2023-02-21T06:16:38.286Z,4.50
2023-02-21T06:19:08.644Z,5.20
2023-02-21T06:21:36.757Z,4.70
2023-02-21T06:24:04.844Z,4.67
2023-02-21T06:26:32.849Z,4.60
2023-02-21T06:29:00.511Z,4.53
2023-02-21T06:31:29.636Z,4.77
2023-02-21T06:33:57.203Z,6.60
2023-02-21T06:36:27.313Z,5.30
2023-02-21T06:38:56.544Z,4.60
2023-02-21T06:41:25.899Z,4.80
2023-02-21T06:43:53.887Z,5.07
2023-02-21T06:46:23.248Z,5.23
2023-02-21T06:48:52.528Z,5.23
2023-02-21T06:51:20.726Z,5.10
2023-02-21T06:53:51.365Z,5.30
2023-02-21T06:56:19.450Z,5.03
2023-02-21T06:58:47.057Z,4.60
2023-02-21T07:01:15.010Z,5.13
2023-02-21T07:03:44.319Z,5.03
2023-02-21T07:06:13.212Z,4.93
2023-02-21T07:08:40.766Z,5.53
2023-02-21T07:11:09.608Z,5.07
2023-02-21T07:13:37.234Z,5.03
2023-02-21T07:16:05.710Z,5.03
2023-02-21T07:18:33.566Z,4.73
2023-02-21T07:21:01.427Z,4.83
2023-02-21T07:23:30.269Z,5.40
2023-02-21T07:25:57.825Z,5.07
2023-02-21T07:28:25.348Z,6.63
2023-02-21T07:30:52.944Z,5.20
2023-02-21T07:33:20.503Z,5.40
2023-02-21T07:35:48.072Z,5.47
2023-02-21T07:38:21.317Z,5.17
2023-02-21T07:40:50.396Z,5.23
2023-02-21T07:43:18.743Z,5.73
2023-02-21T07:45:46.337Z,6.03
2023-02-21T07:48:14.699Z,5.10
2023-02-21T07:50:42.590Z,4.53
2023-02-21T07:53:11.326Z,5.27
2023-02-21T07:55:39.112Z,5.30
2023-02-21T07:58:08.920Z,5.13
2023-02-21T08:00:39.497Z,5.03
2023-02-21T08:03:07.924Z,5.07
2023-02-21T08:05:35.525Z,5.37
2023-02-21T08:08:03.088Z,5.60
2023-02-21T08:10:30.647Z,5.27
2023-02-21T08:12:58.158Z,5.40
2023-02-21T08:15:27.061Z,5.30
2023-02-21T08:17:54.576Z,6.37
2023-02-21T08:20:22.476Z,6.00
2023-02-21T08:22:50.158Z,5.50
2023-02-21T08:25:18.320Z,5.47
2023-02-21T08:27:46.641Z,6.43
2023-02-21T08:30:16.683Z,5.63
2023-02-21T08:32:48.232Z,5.57
2023-02-21T08:35:16.772Z,5.10
2023-02-21T08:37:46.572Z,4.93
2023-02-21T08:40:14.661Z,5.00
2023-02-21T08:42:42.728Z,5.73
2023-02-21T08:45:16.947Z,5.43
2023-02-21T08:47:45.979Z,5.10
2023-02-21T08:50:13.654Z,5.53
2023-02-21T08:52:41.221Z,4.80
2023-02-21T08:55:09.332Z,5.17
2023-02-21T08:57:36.875Z,5.53
2023-02-21T09:00:07.086Z,5.43
2023-02-21T09:02:34.756Z,5.33
2023-02-21T09:05:03.669Z,5.67
2023-02-21T09:07:33.399Z,5.20
2023-02-21T09:10:01.956Z,5.40
2023-02-21T09:12:29.499Z,6.53
2023-02-21T09:14:57.148Z,5.20
2023-02-21T09:17:24.685Z,5.60
2023-02-21T09:19:52.254Z,5.23
2023-02-21T09:22:24.075Z,5.20
2023-02-21T09:24:51.609Z,5.60
2023-02-21T09:27:20.108Z,5.10
2023-02-21T09:29:47.954Z,5.13
2023-02-21T09:32:16.225Z,4.93
2023-02-21T09:34:43.802Z,5.17
2023-02-21T09:37:11.383Z,5.60
2023-02-21T09:39:40.370Z,5.27
2023-02-21T09:42:08.072Z,7.83
2023-02-21T09:44:35.883Z,6.77
2023-02-21T09:47:05.881Z,5.67
2023-02-21T09:49:35.406Z,5.30
2023-02-21T09:52:03.044Z,4.60
2023-02-21T09:54:33.919Z,5.23
2023-02-21T09:57:04.455Z,4.67
2023-02-21T09:59:32.126Z,5.13
2023-02-21T10:02:14.179Z,4.57
2023-02-21T10:04:55.503Z,4.70
2023-02-21T10:07:28.140Z,4.67
2023-02-21T10:09:58.138Z,4.90
2023-02-21T10:12:29.584Z,6.63
2023-02-21T10:15:15.907Z,5.07
2023-02-21T10:17:47.468Z,4.87
2023-02-21T10:20:16.790Z,4.73
2023-02-21T10:22:48.014Z,4.13
2023-02-21T10:25:23.561Z,4.10
2023-02-21T10:27:54.359Z,3.63
2023-02-21T10:30:29.168Z,3.70
2023-02-21T10:32:57.264Z,3.10
2023-02-21T10:35:24.876Z,3.63
2023-02-21T10:37:53.749Z,3.90
2023-02-21T10:40:30.808Z,3.20
2023-02-21T10:43:03.705Z,3.70
2023-02-21T10:45:36.502Z,3.73
2023-02-21T10:48:06.288Z,3.37
2023-02-21T10:50:40.021Z,3.20
2023-02-21T10:53:08.470Z,3.67
2023-02-21T10:55:36.499Z,3.20
2023-02-21T10:58:10.415Z,3.73
2023-02-21T11:00:39.665Z,3.10
2023-02-21T11:03:08.412Z,3.63
2023-02-21T11:05:36.928Z,4.00
2023-02-21T11:08:07.621Z,3.17
2023-02-21T11:10:37.725Z,3.83
2023-02-21T11:13:15.153Z,2.90
2023-02-21T11:15:43.242Z,3.10
2023-02-21T11:18:18.736Z,3.50
2023-02-21T11:20:47.307Z,2.83
2023-02-21T11:23:26.377Z,3.33
2023-02-21T11:26:01.804Z,3.20
2023-02-21T11:28:30.708Z,3.10
2023-02-21T11:31:17.748Z,3.50
2023-02-21T11:33:58.162Z,3.80
2023-02-21T11:36:29.436Z,3.50
2023-02-21T11:39:02.580Z,3.60
2023-02-21T11:41:32.138Z,3.70
2023-02-21T11:44:01.016Z,3.30
2023-02-21T11:46:39.080Z,3.50
2023-02-21T11:49:12.452Z,3.43
2023-02-21T11:51:43.067Z,3.77
2023-02-21T11:54:10.770Z,3.83
2023-02-21T11:56:53.478Z,5.20
2023-02-21T11:59:31.231Z,3.73
2023-02-21T12:02:22.862Z,3.20
2023-02-21T12:05:04.153Z,3.43
2023-02-21T12:07:37.890Z,3.40
2023-02-21T12:10:13.534Z,4.10
2023-02-21T12:12:46.517Z,3.90
2023-02-21T12:15:23.056Z,3.90
2023-02-21T12:18:02.015Z,3.80
2023-02-21T12:20:44.115Z,3.37
2023-02-21T12:23:18.096Z,3.47
2023-02-21T12:25:57.505Z,3.33
2023-02-21T12:28:33.486Z,3.57
2023-02-21T12:31:14.070Z,3.60
2023-02-21T12:33:45.785Z,3.57
2023-02-21T12:36:32.816Z,3.67
2023-02-21T12:39:07.505Z,3.30
2023-02-21T12:41:45.078Z,3.50
2023-02-21T12:44:15.058Z,4.07
2023-02-21T12:46:48.403Z,3.30
2023-02-21T12:49:20.612Z,3.17
2023-02-21T12:51:52.582Z,3.37
2023-02-21T12:54:22.098Z,3.17
2023-02-21T12:56:53.612Z,2.90
2023-02-21T12:59:24.343Z,3.03
2023-02-21T13:01:55.024Z,3.73
2023-02-21T13:04:27.834Z,3.30
2023-02-21T13:06:59.778Z,3.47
2023-02-21T13:09:33.642Z,3.43
2023-02-21T13:12:06.119Z,3.23
2023-02-21T13:14:38.336Z,3.37
2023-02-21T13:17:11.282Z,3.63
2023-02-21T13:19:43.229Z,3.03
2023-02-21T13:22:29.348Z,3.50
2023-02-21T13:25:04.393Z,3.70
2023-02-21T13:27:43.588Z,3.30
2023-02-21T13:30:15.500Z,3.87
2023-02-21T13:32:52.245Z,3.27
2023-02-21T13:35:22.825Z,3.27
2023-02-21T13:37:51.997Z,3.20
2023-02-21T13:40:23.890Z,2.70
2023-02-21T13:43:01.028Z,3.17
2023-02-21T13:45:32.953Z,3.37
2023-02-21T13:48:23.251Z,3.33
2023-02-21T13:50:52.660Z,3.50
2023-02-21T13:53:22.276Z,2.67
2023-02-21T13:56:26.709Z,3.30
2023-02-21T13:58:54.305Z,2.40
2023-02-21T14:01:41.920Z,2.83
2023-02-21T14:05:03.200Z,3.60
2023-02-21T14:07:57.556Z,2.73
2023-02-21T14:10:31.099Z,2.37
2023-02-21T14:13:01.711Z,2.93
2023-02-21T14:15:38.712Z,3.40
2023-02-21T14:18:07.692Z,2.90
2023-02-21T14:20:36.490Z,2.87
2023-02-21T14:23:05.732Z,2.80
2023-02-21T14:25:34.772Z,2.60
2023-02-21T14:28:05.293Z,3.20
2023-02-21T14:30:34.455Z,3.47
2023-02-21T14:33:13.548Z,2.67
2023-02-21T14:35:48.152Z,2.50
2023-02-21T14:38:22.617Z,2.40
2023-02-21T14:41:00.201Z,2.83
2023-02-21T14:43:37.832Z,4.20
2023-02-21T14:46:20.289Z,2.60
2023-02-21T14:48:57.719Z,3.07
2023-02-21T14:52:00.779Z,2.83
2023-02-21T14:54:54.076Z,2.90
2023-02-21T14:57:35.857Z,2.60
2023-02-21T15:00:19.796Z,3.10
2023-02-21T15:02:52.049Z,2.63
2023-02-21T15:05:21.859Z,2.67
2023-02-21T15:07:57.621Z,2.47
2023-02-21T15:10:27.594Z,2.47
2023-02-21T15:12:57.551Z,2.20
2023-02-21T15:15:28.877Z,2.17
2023-02-21T15:18:00.049Z,2.70
2023-02-21T15:20:27.625Z,2.50
2023-02-21T15:23:01.016Z,2.93
2023-02-21T15:25:29.965Z,2.57
2023-02-21T15:28:03.759Z,3.40
2023-02-21T15:30:34.582Z,2.50
2023-02-21T15:33:09.115Z,2.53
2023-02-21T15:35:39.325Z,2.10
2023-02-21T15:38:16.953Z,2.77
2023-02-21T15:40:46.389Z,2.90
2023-02-21T15:43:29.292Z,2.47
2023-02-21T15:45:59.639Z,2.60
2023-02-21T15:48:27.465Z,2.23
2023-02-21T15:50:55.095Z,2.13
2023-02-21T15:53:24.873Z,2.03
2023-02-21T15:55:54.390Z,2.20
2023-02-21T15:58:24.718Z,2.17
2023-02-21T16:01:08.426Z,2.10
2023-02-21T16:03:38.556Z,2.30
2023-02-21T16:06:14.069Z,2.57
2023-02-21T16:08:58.959Z,2.77
2023-02-21T16:11:39.476Z,2.73
2023-02-21T16:14:07.776Z,2.20
2023-02-21T16:16:36.175Z,2.43
2023-02-21T16:19:03.861Z,1.93
2023-02-21T16:21:31.437Z,2.23
2023-02-21T16:24:29.358Z,1.93
2023-02-21T16:27:11.024Z,1.90
2023-02-21T16:29:38.544Z,2.07
2023-02-21T16:32:06.751Z,1.77
2023-02-21T16:34:36.156Z,2.20
2023-02-21T16:37:05.347Z,2.13
2023-02-21T16:39:32.976Z,1.70
2023-02-21T16:42:00.564Z,2.10
2023-02-21T16:44:29.470Z,2.20
2023-02-21T16:46:57.012Z,2.37
2023-02-21T16:49:24.667Z,2.60
2023-02-21T16:51:52.521Z,1.93
2023-02-21T16:54:20.230Z,3.50
2023-02-21T16:56:50.514Z,3.43
2023-02-21T16:59:20.755Z,5.10
2023-02-21T17:01:49.687Z,5.83
2023-02-21T17:04:18.231Z,16.73
2023-02-21T17:06:48.104Z,9.70
2023-02-21T17:09:20.979Z,7.50
2023-02-21T17:11:48.951Z,6.43
2023-02-21T17:14:16.654Z,6.90
2023-02-21T17:16:45.505Z,6.43
2023-02-21T17:19:16.666Z,6.27
2023-02-21T17:21:44.611Z,6.77
2023-02-21T17:24:13.977Z,10.57
2023-02-21T17:26:42.105Z,6.77
2023-02-21T17:29:10.183Z,5.07
2023-02-21T17:31:38.048Z,5.70
2023-02-21T17:34:05.664Z,5.50
2023-02-21T17:36:34.570Z,5.47
2023-02-21T17:39:02.150Z,5.17
2023-02-21T17:41:29.740Z,5.77
2023-02-21T17:43:57.286Z,6.13
2023-02-21T17:46:25.029Z,6.70
2023-02-21T17:48:52.562Z,6.90
2023-02-21T17:51:22.389Z,8.00
2023-02-21T17:53:51.536Z,7.27
2023-02-21T17:56:21.408Z,7.07
2023-02-21T17:58:49.908Z,6.00
2023-02-21T18:01:18.674Z,5.83
2023-02-21T18:03:47.427Z,6.10
2023-02-21T18:06:15.962Z,6.43
2023-02-21T18:08:44.828Z,9.17
2023-02-21T18:11:15.475Z,9.50
2023-02-21T18:13:43.620Z,10.23
2023-02-21T18:16:11.246Z,10.13
2023-02-21T18:18:38.882Z,10.30
2023-02-21T18:21:07.176Z,9.20
2023-02-21T18:23:35.506Z,9.20
2023-02-21T18:26:03.560Z,8.00
2023-02-21T18:28:32.561Z,8.23
2023-02-21T18:31:00.417Z,8.00
2023-02-21T18:33:28.094Z,7.90
2023-02-21T18:35:56.708Z,9.37
2023-02-21T18:38:24.938Z,9.90
2023-02-21T18:40:54.482Z,9.17
2023-02-21T18:43:27.007Z,9.77
2023-02-21T18:45:57.210Z,8.87
2023-02-21T18:48:26.330Z,11.63
2023-02-21T18:50:54.173Z,10.93
2023-02-21T18:53:22.317Z,10.97
2023-02-21T18:55:50.085Z,8.93
2023-02-21T18:58:17.624Z,9.80
2023-02-21T19:00:47.102Z,9.70
2023-02-21T19:03:16.195Z,10.27
2023-02-21T19:05:43.757Z,10.20
2023-02-21T19:08:11.310Z,10.57
2023-02-21T19:10:38.910Z,9.57
2023-02-21T19:13:06.534Z,9.73
2023-02-21T19:15:34.447Z,10.20
2023-02-21T19:18:02.068Z,10.03
2023-02-21T19:20:31.097Z,9.50
2023-02-21T19:22:58.941Z,9.60
2023-02-21T19:25:28.016Z,9.67
2023-02-21T19:28:00.306Z,8.67
2023-02-21T19:30:29.820Z,9.10
2023-02-21T19:32:58.865Z,8.40
2023-02-21T19:35:27.507Z,9.40
2023-02-21T19:37:56.706Z,9.23
2023-02-21T19:40:25.287Z,9.10
2023-02-21T19:42:52.863Z,9.37
2023-02-21T19:45:20.872Z,11.20
2023-02-21T19:47:48.455Z,10.63
2023-02-21T19:50:16.070Z,11.10
2023-02-21T19:52:43.678Z,10.83
2023-02-21T19:55:12.799Z,11.13
2023-02-21T19:57:40.344Z,11.00
2023-02-21T20:00:11.292Z,10.63
2023-02-21T20:02:38.937Z,11.30
2023-02-21T20:05:07.407Z,10.33
2023-02-21T20:07:34.931Z,10.23
2023-02-21T20:10:02.593Z,10.60
2023-02-21T20:12:31.535Z,11.60
2023-02-21T20:14:59.196Z,17.40
2023-02-21T20:17:26.739Z,20.73
2023-02-21T20:19:54.248Z,19.67
2023-02-21T20:22:21.847Z,20.07
2023-02-21T20:24:49.431Z,19.87
2023-02-21T20:27:17.452Z,19.63
2023-02-21T20:29:47.850Z,20.30
2023-02-21T20:32:18.408Z,20.90
2023-02-21T20:34:45.996Z,19.13
2023-02-21T20:37:14.411Z,20.63
2023-02-21T20:39:41.975Z,19.20
2023-02-21T20:42:09.573Z,19.97
2023-02-21T20:44:39.197Z,19.63
2023-02-21T20:47:09.850Z,19.97
2023-02-21T20:49:37.968Z,19.40
2023-02-21T20:52:05.938Z,19.53
2023-02-21T20:54:33.595Z,20.90
2023-02-21T20:57:01.309Z,21.03
2023-02-21T20:59:30.581Z,20.30
2023-02-21T21:01:58.719Z,19.47
2023-02-21T21:04:29.859Z,20.10
2023-02-21T21:06:59.477Z,19.10
2023-02-21T21:09:33.967Z,19.57
2023-02-21T21:12:02.149Z,18.80
2023-02-21T21:14:31.547Z,18.23
2023-02-21T21:16:59.883Z,17.43
2023-02-21T21:19:33.149Z,18.43
2023-02-21T21:22:01.316Z,15.67
2023-02-21T21:24:29.079Z,14.00
2023-02-21T21:26:58.689Z,16.17
2023-02-21T21:29:26.327Z,16.73
2023-02-21T21:31:55.361Z,17.97
2023-02-21T21:34:24.906Z,16.73
2023-02-21T21:36:55.313Z,17.17
2023-02-21T21:39:23.444Z,17.50
2023-02-21T21:41:52.686Z,18.13
2023-02-21T21:44:20.879Z,18.37
2023-02-21T21:46:49.040Z,18.60
2023-02-21T21:49:17.901Z,18.13
2023-02-21T21:51:45.768Z,18.93
2023-02-21T21:54:16.075Z,18.83
2023-02-21T21:56:43.753Z,18.00
2023-02-21T21:59:11.996Z,18.70
2023-02-21T22:01:40.989Z,18.17
2023-02-21T22:04:10.678Z,19.80
2023-02-21T22:06:38.789Z,20.03
2023-02-21T22:09:07.495Z,20.10
2023-02-21T22:11:36.741Z,19.70
2023-02-21T22:14:04.697Z,19.67
2023-02-21T22:16:35.915Z,19.73
2023-02-21T22:19:04.278Z,18.93
2023-02-21T22:21:32.040Z,20.83
2023-02-21T22:23:59.684Z,19.47
2023-02-21T22:26:30.582Z,17.10
2023-02-21T22:29:00.120Z,18.97
2023-02-21T22:31:28.210Z,19.37
2023-02-21T22:33:59.266Z,17.87
2023-02-21T22:36:27.580Z,18.40
2023-02-21T22:38:55.498Z,20.03
2023-02-21T22:41:25.282Z,17.90
2023-02-21T22:43:54.097Z,17.87
2023-02-21T22:46:24.647Z,18.50
2023-02-21T22:48:52.339Z,18.27
2023-02-21T22:51:24.720Z,17.93
2023-02-21T22:53:52.533Z,17.67
2023-02-21T22:56:23.588Z,16.87
2023-02-21T22:58:51.481Z,15.90
2023-02-21T23:01:20.939Z,16.67
2023-02-21T23:03:49.909Z,17.17
2023-02-21T23:06:17.450Z,16.33
2023-02-21T23:08:48.255Z,16.13
2023-02-21T23:11:19.405Z,16.07
2023-02-21T23:13:47.742Z,16.53
2023-02-21T23:16:19.901Z,14.37
2023-02-21T23:18:48.239Z,13.50
2023-02-21T23:21:22.873Z,13.03
2023-02-21T23:23:51.329Z,13.37
2023-02-21T23:26:20.426Z,14.70
2023-02-21T23:28:49.229Z,14.40
2023-02-21T23:31:18.754Z,18.07
2023-02-21T23:33:48.668Z,16.53
2023-02-21T23:36:22.499Z,16.73
2023-02-21T23:38:51.188Z,14.37
2023-02-21T23:41:19.255Z,13.53
2023-02-21T23:43:47.288Z,13.33
2023-02-21T23:46:20.233Z,12.63
2023-02-21T23:48:47.792Z,13.60
2023-02-21T23:51:17.234Z,12.07
2023-02-21T23:53:45.390Z,12.53
2023-02-21T23:56:14.077Z,11.07
2023-02-21T23:58:45.161Z,11.40
